Terminal Aerodrome Forecast
Issued by NWS Cleveland, OH

Home | Current Version | Previous Version | Graphics & Text | Print | Product List | Glossary On
Versions: 1 2 3 4 5 6 7 8 9 10 11 12 13 14
810
FTUS41 KCLE 041739
TAFMFD
TAF
KMFD 041739Z 0418/0518 25010KT P6SM BKN015 OVC020
      TEMPO 0419/0422 SCT015 OVC020
     FM042200 26010KT P6SM SCT015 OVC020
     FM050500 27005KT P6SM SCT020
     FM051300 25005KT P6SM BKN050=

USA.gov is the U.S. government's official web portal to all federal, state and local government web resources and services.